Time;durP1;ratioP1;P1;durP2;ratioP2;P2;SDS_P1;SDS_P2;PMS_P1;PMS_P2;Temp;Humidity;BMP_temperature;BMP_pressure;BME280_temperature;BME280_humidity;BME280_pressure;Samples;Min_cycle;Max_cycle;Signal;HPM_P1;HPM_P2
2023/03/28 00:01:45;;;;;;;9.10;7.20;;;;;;;;;;5009347;28;20353;-76
2023/03/28 00:04:11;;;;;;;5.95;5.35;;;;;;;;;;5015848;28;20449;-77
2023/03/28 00:06:40;;;;;;;6.45;5.85;;;;;;;;;;5006303;28;20063;-78
2023/03/28 00:09:06;;;;;;;8.35;7.53;;;;;;;;;;5004959;28;20079;-79
2023/03/28 00:11:31;;;;;;;6.85;6.25;;;;;;;;;;5015881;28;20049;-79
2023/03/28 00:13:59;;;;;;;10.95;9.15;;;;;;;;;;5019612;28;21261;-77
2023/03/28 00:16:35;;;;;;;9.15;8.25;;;;;;;;;;5005678;28;20075;-78
2023/03/28 00:19:02;;;;;;;8.38;7.53;;;;;;;;;;5018560;28;20033;-78
2023/03/28 00:21:38;;;;;;;7.93;7.13;;;;;;;;;;5004208;28;20100;-78
2023/03/28 00:24:06;;;;;;;12.70;9.02;;;;;;;;;;5005001;28;20025;-79
2023/03/28 00:26:33;;;;;;;7.75;6.93;;;;;;;;;;5022802;28;20373;-81
2023/03/28 00:29:00;;;;;;;14.55;9.77;;;;;;;;;;5017117;28;20189;-78
2023/03/28 00:31:25;;;;;;;9.95;9.05;;;;;;;;;;5033154;28;20400;-79
2023/03/28 00:33:51;;;;;;;9.75;8.85;;;;;;;;;;5007092;28;20065;-78
2023/03/28 00:36:25;;;;;;;8.48;7.88;;;;;;;;;;5007959;28;20373;-79
2023/03/28 00:38:57;;;;;;;8.15;7.47;;;;;;;;;;5011600;28;20035;-81
2023/03/28 00:41:23;;;;;;;10.02;9.13;;;;;;;;;;5014641;28;20042;-79
2023/03/28 00:43:50;;;;;;;10.30;9.38;;;;;;;;;;5013632;28;20045;-77
2023/03/28 00:46:15;;;;;;;11.10;9.98;;;;;;;;;;5003811;28;20061;-80
2023/03/28 00:48:51;;;;;;;11.32;10.20;;;;;;;;;;5015526;28;20025;-78
2023/03/28 00:51:18;;;;;;;11.45;10.25;;;;;;;;;;5004171;28;20032;-77
2023/03/28 00:53:43;;;;;;;9.70;8.88;;;;;;;;;;5017045;28;20033;-78
2023/03/28 00:56:11;;;;;;;10.80;9.80;;;;;;;;;;5017145;28;20104;-78
2023/03/28 00:58:40;;;;;;;14.05;10.13;;;;;;;;;;5015584;28;20025;-76
2023/03/28 01:01:06;;;;;;;9.98;8.98;;;;;;;;;;5008670;28;20025;-77
2023/03/28 01:03:33;;;;;;;9.23;8.27;;;;;;;;;;5005307;28;20038;-77
2023/03/28 01:06:00;;;;;;;8.40;7.60;;;;;;;;;;5012094;28;20029;-77
2023/03/28 01:08:27;;;;;;;8.07;7.28;;;;;;;;;;5014611;28;20135;-75
2023/03/28 01:10:53;;;;;;;7.30;6.60;;;;;;;;;;5003715;28;20022;-77
2023/03/28 01:13:19;;;;;;;9.25;7.97;;;;;;;;;;5003185;28;20029;-76
2023/03/28 01:15:47;;;;;;;8.48;7.68;;;;;;;;;;5008664;28;20091;-75
2023/03/28 01:18:15;;;;;;;11.50;10.30;;;;;;;;;;5007632;28;20033;-76
2023/03/28 01:20:58;;;;;;;9.60;8.55;;;;;;;;;;5005316;28;20108;-76
2023/03/28 01:23:27;;;;;;;7.97;7.28;;;;;;;;;;5010950;28;20433;-77
2023/03/28 01:25:55;;;;;;;7.65;6.97;;;;;;;;;;5004012;28;20036;-77
2023/03/28 01:28:37;;;;;;;7.57;6.85;;;;;;;;;;5014993;28;20029;-80
2023/03/28 01:31:22;;;;;;;7.30;6.70;;;;;;;;;;5014421;28;20025;-78
2023/03/28 01:34:00;;;;;;;6.70;6.10;;;;;;;;;;5010995;28;20033;-77
2023/03/28 01:36:31;;;;;;;5.68;5.18;;;;;;;;;;5003982;28;20037;-75
2023/03/28 01:39:03;;;;;;;5.25;4.85;;;;;;;;;;5015132;28;20441;-78
2023/03/28 01:41:43;;;;;;;5.72;5.13;;;;;;;;;;5003359;28;20036;-76
2023/03/28 01:44:27;;;;;;;6.68;6.07;;;;;;;;;;5016170;28;20446;-79
2023/03/28 01:47:03;;;;;;;4.80;4.32;;;;;;;;;;5007975;28;20504;-80
2023/03/28 01:49:34;;;;;;;5.80;5.20;;;;;;;;;;5013927;28;20017;-78
2023/03/28 01:52:17;;;;;;;5.78;5.22;;;;;;;;;;5013490;28;20473;-78
2023/03/28 01:54:42;;;;;;;4.13;3.72;;;;;;;;;;5004759;28;20030;-78
2023/03/28 01:57:09;;;;;;;4.63;4.10;;;;;;;;;;5002291;28;20033;-79
2023/03/28 01:59:35;;;;;;;4.13;3.60;;;;;;;;;;5003547;28;20095;-77
2023/03/28 02:02:12;;;;;;;5.22;4.40;;;;;;;;;;5003606;28;20024;-75
2023/03/28 02:04:38;;;;;;;5.57;4.32;;;;;;;;;;5006649;28;20018;-75
2023/03/28 02:07:04;;;;;;;5.07;4.15;;;;;;;;;;5015686;28;20021;-78
2023/03/28 02:09:31;;;;;;;6.97;5.20;;;;;;;;;;5014704;28;20025;-77
2023/03/28 02:11:58;;;;;;;3.50;3.20;;;;;;;;;;5008692;28;20033;-77
2023/03/28 02:14:25;;;;;;;4.80;4.30;;;;;;;;;;5007270;28;20057;-76
2023/03/28 02:16:53;;;;;;;4.20;3.80;;;;;;;;;;5012131;28;20041;-78
2023/03/28 02:19:21;;;;;;;4.85;4.10;;;;;;;;;;5015271;28;20356;-78
2023/03/28 02:21:50;;;;;;;5.00;4.28;;;;;;;;;;4999851;28;20033;-75
2023/03/28 02:24:15;;;;;;;6.60;5.72;;;;;;;;;;5003597;28;20030;-76
2023/03/28 02:26:41;;;;;;;4.22;3.53;;;;;;;;;;5001633;28;20369;-78
2023/03/28 02:29:07;;;;;;;6.20;5.13;;;;;;;;;;5007441;28;20481;-77
2023/03/28 02:31:33;;;;;;;8.00;5.90;;;;;;;;;;5014291;28;20040;-77
2023/03/28 02:34:00;;;;;;;5.47;3.85;;;;;;;;;;5011391;28;20040;-76
2023/03/28 02:36:38;;;;;;;4.13;3.72;;;;;;;;;;5009919;28;20025;-77
2023/03/28 02:39:22;;;;;;;6.68;4.90;;;;;;;;;;5012715;28;20029;-77
2023/03/28 02:41:53;;;;;;;6.05;4.95;;;;;;;;;;5014485;28;20108;-79
2023/03/28 02:44:31;;;;;;;4.68;3.95;;;;;;;;;;5014732;28;20322;-78
2023/03/28 02:47:07;;;;;;;4.88;4.28;;;;;;;;;;5016918;28;20053;-78
2023/03/28 02:49:37;;;;;;;5.75;4.40;;;;;;;;;;5003111;28;20021;-78
2023/03/28 02:52:15;;;;;;;4.90;4.50;;;;;;;;;;5014273;28;20153;-80
2023/03/28 02:55:02;;;;;;;4.82;4.40;;;;;;;;;;5013091;28;20473;-78
2023/03/28 02:57:32;;;;;;;3.97;3.63;;;;;;;;;;5012935;28;20029;-77
2023/03/28 03:00:01;;;;;;;3.95;3.17;;;;;;;;;;5011333;28;20112;-78
2023/03/28 03:02:27;;;;;;;3.78;3.45;;;;;;;;;;5014329;28;20029;-79
2023/03/28 03:04:56;;;;;;;3.92;3.50;;;;;;;;;;5013139;28;20033;-79
2023/03/28 03:07:22;;;;;;;4.75;4.00;;;;;;;;;;5012038;28;20029;-79
2023/03/28 03:09:52;;;;;;;3.65;3.35;;;;;;;;;;5020289;28;20032;-78
2023/03/28 03:12:17;;;;;;;3.72;3.42;;;;;;;;;;5008938;28;20213;-79
2023/03/28 03:14:43;;;;;;;3.50;3.08;;;;;;;;;;5011933;28;21208;-78
2023/03/28 03:17:08;;;;;;;3.90;3.50;;;;;;;;;;5014939;28;20030;-77
2023/03/28 03:19:33;;;;;;;4.45;3.90;;;;;;;;;;5013186;28;20444;-77
2023/03/28 03:21:59;;;;;;;4.97;4.15;;;;;;;;;;5017630;28;20098;-77
2023/03/28 03:24:24;;;;;;;5.15;4.65;;;;;;;;;;5005034;28;20021;-77
2023/03/28 03:26:50;;;;;;;7.32;6.57;;;;;;;;;;5010091;28;20029;-79
2023/03/28 03:29:15;;;;;;;4.80;4.30;;;;;;;;;;5018771;28;20038;-79
2023/03/28 03:31:40;;;;;;;6.38;5.78;;;;;;;;;;5016305;28;20914;-78
2023/03/28 03:34:06;;;;;;;8.00;6.55;;;;;;;;;;5005328;28;20966;-78
2023/03/28 03:36:31;;;;;;;7.00;6.40;;;;;;;;;;5011805;28;20025;-78
2023/03/28 03:38:57;;;;;;;8.32;7.50;;;;;;;;;;5018216;28;20702;-79
2023/03/28 03:41:22;;;;;;;8.77;7.93;;;;;;;;;;5014809;28;20333;-78
2023/03/28 03:43:48;;;;;;;8.88;7.97;;;;;;;;;;5025139;28;20021;-78
2023/03/28 03:46:13;;;;;;;8.32;7.63;;;;;;;;;;5013166;28;20057;-78
2023/03/28 03:48:38;;;;;;;6.50;5.57;;;;;;;;;;4995191;28;20156;-79
2023/03/28 03:51:04;;;;;;;5.28;4.88;;;;;;;;;;4995408;28;20033;-79
2023/03/28 03:53:29;;;;;;;5.18;4.63;;;;;;;;;;4997769;28;20018;-77
2023/03/28 03:55:58;;;;;;;5.20;4.68;;;;;;;;;;4993350;28;20042;-79
2023/03/28 03:58:24;;;;;;;5.68;5.07;;;;;;;;;;4995994;28;20135;-78
2023/03/28 04:00:49;;;;;;;4.95;4.47;;;;;;;;;;5009021;28;20456;-78
2023/03/28 04:03:15;;;;;;;5.75;5.22;;;;;;;;;;5017438;28;20110;-79
2023/03/28 04:05:40;;;;;;;5.22;4.82;;;;;;;;;;5014648;28;20872;-79
2023/03/28 04:08:05;;;;;;;13.32;10.25;;;;;;;;;;5020420;28;20034;-77
2023/03/28 04:10:31;;;;;;;9.50;7.68;;;;;;;;;;5014684;28;20036;-78
2023/03/28 04:12:56;;;;;;;7.15;6.50;;;;;;;;;;5017429;28;20021;-78
2023/03/28 04:15:21;;;;;;;12.60;9.30;;;;;;;;;;5012492;28;20026;-79
2023/03/28 04:17:49;;;;;;;8.10;7.30;;;;;;;;;;5015768;28;20116;-80
2023/03/28 04:20:14;;;;;;;10.90;8.15;;;;;;;;;;5005713;28;20021;-80
2023/03/28 04:22:40;;;;;;;10.90;8.48;;;;;;;;;;5016329;28;20052;-79
2023/03/28 04:25:06;;;;;;;9.20;7.93;;;;;;;;;;5030941;28;20034;-80
2023/03/28 04:27:32;;;;;;;8.55;7.75;;;;;;;;;;5010178;28;20037;-80
2023/03/28 04:29:59;;;;;;;8.70;7.47;;;;;;;;;;5011375;28;20364;-80
2023/03/28 04:32:24;;;;;;;10.77;8.40;;;;;;;;;;5017553;28;20123;-79
2023/03/28 04:34:50;;;;;;;11.40;10.23;;;;;;;;;;5014582;28;20079;-79
2023/03/28 04:37:16;;;;;;;10.98;9.27;;;;;;;;;;5017424;28;20033;-78
2023/03/28 04:39:43;;;;;;;7.20;6.32;;;;;;;;;;5007898;28;20033;-78
2023/03/28 04:42:08;;;;;;;15.57;13.18;;;;;;;;;;5002445;28;20451;-80
2023/03/28 04:44:34;;;;;;;7.93;7.03;;;;;;;;;;5016306;28;20026;-79
2023/03/28 04:46:59;;;;;;;13.80;10.95;;;;;;;;;;5016686;28;20129;-79
2023/03/28 04:49:25;;;;;;;11.85;10.05;;;;;;;;;;5016095;28;20515;-79
2023/03/28 04:51:50;;;;;;;18.60;14.57;;;;;;;;;;5018383;28;20784;-80
2023/03/28 04:54:16;;;;;;;14.65;12.85;;;;;;;;;;5015586;28;20087;-80
2023/03/28 04:56:44;;;;;;;15.07;10.70;;;;;;;;;;5017398;28;20047;-79
2023/03/28 04:59:10;;;;;;;24.30;21.70;;;;;;;;;;5013697;28;20116;-78
2023/03/28 05:01:36;;;;;;;10.57;9.50;;;;;;;;;;5004190;28;20045;-79
2023/03/28 05:04:02;;;;;;;7.82;7.07;;;;;;;;;;5003626;28;20130;-78
2023/03/28 05:06:28;;;;;;;9.05;8.10;;;;;;;;;;5003327;28;20062;-79
2023/03/28 05:08:53;;;;;;;6.25;5.65;;;;;;;;;;5017897;28;20033;-78
2023/03/28 05:11:18;;;;;;;6.63;6.03;;;;;;;;;;5008544;28;20423;-79
2023/03/28 05:13:44;;;;;;;12.48;10.65;;;;;;;;;;5015565;28;20037;-79
2023/03/28 05:16:09;;;;;;;7.38;6.60;;;;;;;;;;5013812;28;20028;-80
2023/03/28 05:18:34;;;;;;;11.57;10.07;;;;;;;;;;5017466;28;20079;-82
2023/03/28 05:21:00;;;;;;;22.95;17.77;;;;;;;;;;5013269;28;20036;-80
2023/03/28 05:23:25;;;;;;;115.97;74.20;;;;;;;;;;5017156;28;20401;-78
2023/03/28 05:25:51;;;;;;;13.55;12.02;;;;;;;;;;5014550;28;20118;-83
2023/03/28 05:28:16;;;;;;;12.98;10.77;;;;;;;;;;5016113;28;20104;-80
2023/03/28 05:30:42;;;;;;;16.63;14.27;;;;;;;;;;5032962;28;20025;-82
2023/03/28 05:33:07;;;;;;;30.02;23.55;;;;;;;;;;5010772;28;20061;-80
2023/03/28 05:35:32;;;;;;;17.20;13.52;;;;;;;;;;5018430;28;20049;-78
2023/03/28 05:37:58;;;;;;;14.60;11.43;;;;;;;;;;5005501;28;20617;-79
2023/03/28 05:40:23;;;;;;;14.20;12.10;;;;;;;;;;5001497;28;20028;-79
2023/03/28 05:42:48;;;;;;;29.27;21.90;;;;;;;;;;5000025;28;20112;-80
2023/03/28 05:45:14;;;;;;;84.03;59.08;;;;;;;;;;5002532;28;20033;-79
2023/03/28 05:47:39;;;;;;;62.38;40.45;;;;;;;;;;5004028;28;20049;-79
2023/03/28 05:50:05;;;;;;;24.38;18.42;;;;;;;;;;5013391;28;20026;-78
2023/03/28 05:52:30;;;;;;;22.88;17.92;;;;;;;;;;5016604;28;20079;-80
2023/03/28 05:54:56;;;;;;;20.42;12.90;;;;;;;;;;5014047;28;20021;-79
2023/03/28 05:57:21;;;;;;;35.80;22.63;;;;;;;;;;5017436;28;20025;-80
2023/03/28 05:59:47;;;;;;;38.15;27.73;;;;;;;;;;5013993;28;20061;-80
2023/03/28 06:02:13;;;;;;;28.08;22.85;;;;;;;;;;5014420;28;20026;-80
2023/03/28 06:04:39;;;;;;;16.92;14.10;;;;;;;;;;5016730;28;20069;-80
2023/03/28 06:07:05;;;;;;;24.92;19.83;;;;;;;;;;5013980;28;20060;-79
2023/03/28 06:09:31;;;;;;;77.80;57.30;;;;;;;;;;5011699;28;20057;-80
2023/03/28 06:11:57;;;;;;;17.90;14.95;;;;;;;;;;5017053;28;20472;-80
2023/03/28 06:14:22;;;;;;;11.77;10.55;;;;;;;;;;5013571;28;20026;-78
2023/03/28 06:16:47;;;;;;;18.50;16.30;;;;;;;;;;5014579;28;20098;-81
2023/03/28 06:19:12;;;;;;;28.27;24.42;;;;;;;;;;5015772;28;20033;-77
2023/03/28 06:21:38;;;;;;;29.77;25.38;;;;;;;;;;5012005;28;20029;-78
2023/03/28 06:24:03;;;;;;;39.33;31.73;;;;;;;;;;5002014;28;20115;-80
2023/03/28 06:26:29;;;;;;;26.23;22.85;;;;;;;;;;5008339;28;20076;-79
2023/03/28 06:28:54;;;;;;;32.60;26.35;;;;;;;;;;5012753;28;20025;-80
2023/03/28 06:31:19;;;;;;;37.15;29.40;;;;;;;;;;5013322;28;20034;-80
2023/03/28 06:33:45;;;;;;;107.35;67.63;;;;;;;;;;5009199;28;20079;-80
2023/03/28 06:36:10;;;;;;;37.20;28.55;;;;;;;;;;5000083;28;20059;-79
2023/03/28 06:38:36;;;;;;;26.98;20.15;;;;;;;;;;5014308;28;20040;-79
2023/03/28 06:41:02;;;;;;;45.85;35.22;;;;;;;;;;4997862;28;20030;-79
2023/03/28 06:43:27;;;;;;;50.22;36.97;;;;;;;;;;4998350;28;20036;-78
2023/03/28 06:45:52;;;;;;;49.67;36.95;;;;;;;;;;4998775;28;20072;-78
2023/03/28 06:48:18;;;;;;;29.20;22.25;;;;;;;;;;4999948;28;20040;-79
2023/03/28 06:50:52;;;;;;;31.38;21.98;;;;;;;;;;5000568;28;20511;-78
2023/03/28 06:53:18;;;;;;;53.25;35.55;;;;;;;;;;5002152;28;20063;-79
2023/03/28 06:55:43;;;;;;;23.77;18.20;;;;;;;;;;5005153;28;21093;-79
2023/03/28 06:58:09;;;;;;;35.33;24.23;;;;;;;;;;5002011;28;21014;-77
2023/03/28 07:00:35;;;;;;;10.50;8.93;;;;;;;;;;5004437;28;20021;-78
2023/03/28 07:03:00;;;;;;;24.20;17.80;;;;;;;;;;5006544;28;20022;-79
2023/03/28 07:05:25;;;;;;;21.17;16.05;;;;;;;;;;5003821;28;20421;-78
2023/03/28 07:07:51;;;;;;;31.27;24.52;;;;;;;;;;5001217;28;20040;-80
2023/03/28 07:10:16;;;;;;;35.15;26.77;;;;;;;;;;5003630;28;20025;-77
2023/03/28 07:12:42;;;;;;;17.30;14.52;;;;;;;;;;5000062;28;20030;-78
2023/03/28 07:15:07;;;;;;;28.88;23.40;;;;;;;;;;5001585;28;20124;-79
2023/03/28 07:17:32;;;;;;;22.35;17.83;;;;;;;;;;5001491;28;20068;-79
2023/03/28 07:19:58;;;;;;;20.70;17.30;;;;;;;;;;5003158;28;20029;-79
2023/03/28 07:22:23;;;;;;;19.50;16.80;;;;;;;;;;5000514;28;20465;-80
2023/03/28 07:24:48;;;;;;;34.05;24.23;;;;;;;;;;5000013;28;20104;-78
2023/03/28 07:27:14;;;;;;;13.27;11.00;;;;;;;;;;5003291;28;20068;-80
2023/03/28 07:29:39;;;;;;;19.42;17.35;;;;;;;;;;5003248;28;20021;-79
2023/03/28 07:32:05;;;;;;;15.63;11.63;;;;;;;;;;5001771;28;20113;-77
2023/03/28 07:34:30;;;;;;;14.57;11.35;;;;;;;;;;5003329;28;20032;-79
2023/03/28 07:36:56;;;;;;;22.73;16.60;;;;;;;;;;5004279;28;20032;-77
2023/03/28 07:39:21;;;;;;;10.75;9.20;;;;;;;;;;5005817;28;22838;-77
2023/03/28 07:41:46;;;;;;;17.05;13.52;;;;;;;;;;5013309;28;20026;-79
2023/03/28 07:44:12;;;;;;;15.45;11.55;;;;;;;;;;5006401;28;20040;-78
2023/03/28 07:46:37;;;;;;;11.77;9.70;;;;;;;;;;5000998;28;20054;-78
2023/03/28 07:49:03;;;;;;;9.38;8.48;;;;;;;;;;5018101;28;20072;-79
2023/03/28 07:51:28;;;;;;;24.83;20.27;;;;;;;;;;5003546;28;20098;-78
2023/03/28 07:53:54;;;;;;;19.58;16.20;;;;;;;;;;5002743;28;20144;-79
2023/03/28 07:56:19;;;;;;;33.38;24.55;;;;;;;;;;5001737;28;20037;-79
2023/03/28 07:58:45;;;;;;;30.92;23.00;;;;;;;;;;5001356;28;20040;-79
2023/03/28 08:01:11;;;;;;;32.03;24.25;;;;;;;;;;4998077;28;20204;-79
2023/03/28 08:03:37;;;;;;;46.72;33.42;;;;;;;;;;4997500;28;20036;-80
2023/03/28 08:06:06;;;;;;;28.02;22.13;;;;;;;;;;5001195;28;20037;-79
2023/03/28 08:08:31;;;;;;;44.35;29.25;;;;;;;;;;4999445;28;20029;-79
2023/03/28 08:10:57;;;;;;;19.00;14.82;;;;;;;;;;4998296;28;20090;-80
2023/03/28 08:13:23;;;;;;;24.05;18.20;;;;;;;;;;5000178;28;20334;-80
2023/03/28 08:15:49;;;;;;;20.92;15.75;;;;;;;;;;4999673;28;20334;-80
2023/03/28 08:18:19;;;;;;;16.67;13.88;;;;;;;;;;4997691;28;20101;-79
2023/03/28 08:20:45;;;;;;;13.00;10.68;;;;;;;;;;4996803;28;20026;-78
2023/03/28 08:23:10;;;;;;;15.68;14.02;;;;;;;;;;5008950;28;20037;-78
2023/03/28 08:25:36;;;;;;;15.07;12.45;;;;;;;;;;5012431;28;20488;-77
2023/03/28 08:28:01;;;;;;;11.88;10.52;;;;;;;;;;4994224;28;20030;-79
2023/03/28 08:30:27;;;;;;;25.40;19.10;;;;;;;;;;4998089;28;20105;-79
2023/03/28 08:32:52;;;;;;;13.45;10.70;;;;;;;;;;5000070;28;20430;-80
2023/03/28 08:35:17;;;;;;;18.20;12.27;;;;;;;;;;5003169;28;20034;-78
2023/03/28 08:37:43;;;;;;;24.15;18.17;;;;;;;;;;4993337;28;20208;-79
2023/03/28 08:40:13;;;;;;;31.65;21.38;;;;;;;;;;5007707;28;20136;-78
2023/03/28 08:42:38;;;;;;;;;;;;;;;;;;5008025;28;20022;-79
2023/03/28 08:45:03;;;;;;;21.30;17.08;;;;;;;;;;5012411;28;20309;-80
2023/03/28 08:47:30;;;;;;;14.23;11.00;;;;;;;;;;4966245;28;1286748;-78
2023/03/28 08:50:22;;;;;;;23.45;16.05;;;;;;;;;;5013636;28;20419;-81
2023/03/28 08:52:47;;;;;;;14.35;11.05;;;;;;;;;;5014123;28;20040;-79
2023/03/28 08:55:16;;;;;;;20.83;16.08;;;;;;;;;;5013958;28;20411;-79
2023/03/28 08:57:41;;;;;;;29.80;22.23;;;;;;;;;;5015617;28;20029;-77
2023/03/28 09:00:09;;;;;;;33.83;25.30;;;;;;;;;;5012551;28;20083;-75
2023/03/28 09:02:34;;;;;;;30.27;23.13;;;;;;;;;;5012816;28;20079;-78
2023/03/28 09:05:00;;;;;;;35.40;24.55;;;;;;;;;;5016021;28;20018;-78
2023/03/28 09:07:38;;;;;;;34.63;27.63;;;;;;;;;;5009381;28;20041;-78
2023/03/28 09:10:22;;;;;;;13.88;12.27;;;;;;;;;;5012257;28;20033;-78
2023/03/28 09:12:53;;;;;;;11.10;9.90;;;;;;;;;;5014184;28;20040;-77
2023/03/28 09:15:19;;;;;;;19.88;15.68;;;;;;;;;;5016459;28;20155;-78
2023/03/28 09:17:56;;;;;;;38.28;30.77;;;;;;;;;;5015204;28;20116;-80
2023/03/28 09:20:24;;;;;;;23.10;18.85;;;;;;;;;;5018079;28;20364;-79
2023/03/28 09:22:56;;;;;;;28.90;20.00;;;;;;;;;;5014902;28;20482;-78
2023/03/28 09:25:31;;;;;;;13.80;11.63;;;;;;;;;;5016600;28;20029;-80
2023/03/28 09:28:12;;;;;;;21.55;15.73;;;;;;;;;;5017053;28;20048;-78
2023/03/28 09:30:40;;;;;;;17.42;12.52;;;;;;;;;;5012445;28;20021;-76
2023/03/28 09:33:11;;;;;;;13.18;9.88;;;;;;;;;;5012771;28;20481;-77
2023/03/28 09:35:38;;;;;;;15.95;11.32;;;;;;;;;;5017209;28;20664;-77
2023/03/28 09:38:05;;;;;;;15.98;12.82;;;;;;;;;;5016864;28;20061;-76
2023/03/28 09:40:33;;;;;;;9.32;8.38;;;;;;;;;;5016262;28;20034;-78
2023/03/28 09:43:04;;;;;;;16.65;12.93;;;;;;;;;;5013621;28;20509;-76
2023/03/28 09:45:38;;;;;;;27.50;20.27;;;;;;;;;;5016233;28;20040;-78
2023/03/28 09:48:20;;;;;;;31.38;23.80;;;;;;;;;;5004435;28;20474;-78
2023/03/28 09:50:45;;;;;;;18.00;14.27;;;;;;;;;;4997167;28;20025;-79
2023/03/28 09:53:18;;;;;;;23.08;18.25;;;;;;;;;;4998561;28;21111;-78
2023/03/28 09:55:43;;;;;;;36.60;27.50;;;;;;;;;;4999796;28;20044;-78
2023/03/28 09:58:10;;;;;;;19.27;15.00;;;;;;;;;;4999838;28;20033;-79
2023/03/28 10:00:38;;;;;;;28.42;18.17;;;;;;;;;;5015389;28;20365;-79
2023/03/28 10:03:03;;;;;;;30.52;21.80;;;;;;;;;;5000098;28;20040;-77
2023/03/28 10:05:31;;;;;;;25.58;18.98;;;;;;;;;;4999285;28;20074;-78
2023/03/28 10:07:56;;;;;;;12.43;10.85;;;;;;;;;;4997887;28;20520;-78
2023/03/28 10:10:23;;;;;;;10.48;7.53;;;;;;;;;;4997323;28;20109;-78
2023/03/28 10:12:54;;;;;;;21.33;15.85;;;;;;;;;;4999042;28;20116;-77
2023/03/28 10:15:31;;;;;;;16.52;11.30;;;;;;;;;;4999280;28;20033;-76
2023/03/28 10:17:58;;;;;;;21.30;16.35;;;;;;;;;;5000272;28;20029;-78
2023/03/28 10:20:23;;;;;;;13.25;11.10;;;;;;;;;;5000064;28;20045;-78
2023/03/28 10:22:50;;;;;;;11.80;9.80;;;;;;;;;;5005806;28;20029;-78
2023/03/28 10:25:20;;;;;;;8.98;8.10;;;;;;;;;;5012472;28;20025;-76
2023/03/28 10:27:46;;;;;;;10.30;9.25;;;;;;;;;;5007920;28;20060;-78
2023/03/28 10:30:28;;;;;;;13.88;11.40;;;;;;;;;;4998124;28;20029;-77
2023/03/28 10:33:20;;;;;;;15.23;12.20;;;;;;;;;;4999040;28;20389;-78
2023/03/28 10:35:46;;;;;;;10.48;8.77;;;;;;;;;;4997651;28;23372;-79
2023/03/28 10:38:14;;;;;;;9.80;8.77;;;;;;;;;;5003819;28;20037;-78
2023/03/28 10:40:39;;;;;;;13.10;10.73;;;;;;;;;;5012820;28;20064;-79
2023/03/28 10:43:10;;;;;;;13.98;12.25;;;;;;;;;;5007326;28;20258;-77
2023/03/28 10:45:40;;;;;;;13.15;11.77;;;;;;;;;;5003332;28;20021;-78
2023/03/28 10:48:11;;;;;;;17.38;13.40;;;;;;;;;;5002743;28;20057;-76
2023/03/28 10:50:40;;;;;;;10.57;9.18;;;;;;;;;;5001233;28;20022;-76
2023/03/28 10:53:12;;;;;;;13.83;12.27;;;;;;;;;;5013554;28;20022;-77
2023/03/28 10:55:39;;;;;;;10.90;9.65;;;;;;;;;;5014642;28;20262;-77
2023/03/28 10:58:20;;;;;;;12.43;11.02;;;;;;;;;;5013834;28;20037;-79
2023/03/28 11:01:06;;;;;;;14.60;12.27;;;;;;;;;;5013698;28;20026;-77
2023/03/28 11:03:47;;;;;;;12.00;10.63;;;;;;;;;;5011702;28;20038;-79
2023/03/28 11:06:18;;;;;;;12.18;9.98;;;;;;;;;;5014163;28;20026;-76
2023/03/28 11:08:46;;;;;;;12.50;10.65;;;;;;;;;;5014480;28;20463;-76
2023/03/28 11:11:26;;;;;;;13.65;10.95;;;;;;;;;;5014012;28;20033;-76
2023/03/28 11:14:10;;;;;;;14.35;11.90;;;;;;;;;;5013217;28;20040;-76
2023/03/28 11:16:42;;;;;;;9.35;7.47;;;;;;;;;;5015665;28;20034;-77
2023/03/28 11:19:22;;;;;;;7.65;6.85;;;;;;;;;;5014237;28;20437;-80
2023/03/28 11:22:00;;;;;;;15.82;10.73;;;;;;;;;;5013594;28;20083;-75
2023/03/28 11:24:43;;;;;;;18.50;12.73;;;;;;;;;;5014480;28;20543;-77
2023/03/28 11:27:23;;;;;;;10.27;9.13;;;;;;;;;;5015695;28;20491;-74
2023/03/28 11:30:00;;;;;;;9.15;7.63;;;;;;;;;;5014334;28;20117;-75
2023/03/28 11:32:29;;;;;;;10.23;9.15;;;;;;;;;;5013424;28;20026;-77
2023/03/28 11:35:01;;;;;;;7.90;5.30;;;;;;;;;;5013269;28;20026;-74
2023/03/28 11:37:30;;;;;;;6.20;5.45;;;;;;;;;;5013971;28;20112;-76
2023/03/28 11:39:58;;;;;;;7.90;6.10;;;;;;;;;;5015271;28;20040;-75
2023/03/28 11:42:27;;;;;;;10.43;9.25;;;;;;;;;;5017661;28;20025;-75
2023/03/28 11:45:11;;;;;;;9.60;7.88;;;;;;;;;;5019933;28;20121;-74
2023/03/28 11:47:44;;;;;;;8.82;7.80;;;;;;;;;;5015641;28;20068;-77
2023/03/28 11:50:13;;;;;;;11.40;6.80;;;;;;;;;;5017396;28;20025;-76
2023/03/28 11:52:48;;;;;;;52.53;29.67;;;;;;;;;;5017800;28;20040;-76
2023/03/28 11:55:22;;;;;;;50.95;29.40;;;;;;;;;;5018940;28;20036;-76
2023/03/28 11:58:06;;;;;;;9.25;7.30;;;;;;;;;;5019054;28;20211;-75
2023/03/28 12:00:47;;;;;;;9.98;8.85;;;;;;;;;;5018019;28;20048;-75
2023/03/28 12:03:17;;;;;;;10.43;8.82;;;;;;;;;;5014327;28;20026;-76
2023/03/28 12:05:49;;;;;;;15.98;12.27;;;;;;;;;;5017741;28;20025;-76
2023/03/28 12:08:31;;;;;;;11.63;9.68;;;;;;;;;;5017641;28;20034;-77
2023/03/28 12:11:06;;;;;;;66.82;43.25;;;;;;;;;;5014854;28;20484;-78
2023/03/28 12:13:36;;;;;;;8.75;6.90;;;;;;;;;;5016419;28;20025;-75
2023/03/28 12:16:04;;;;;;;8.85;7.28;;;;;;;;;;5016189;28;20025;-76
2023/03/28 12:18:30;;;;;;;5.97;5.10;;;;;;;;;;5014363;28;20126;-75
2023/03/28 12:20:59;;;;;;;11.65;9.98;;;;;;;;;;5015462;28;20104;-77
2023/03/28 12:23:41;;;;;;;12.30;11.05;;;;;;;;;;5020192;28;20113;-76
2023/03/28 12:26:13;;;;;;;10.25;8.65;;;;;;;;;;5018936;28;20064;-75
2023/03/28 12:28:38;;;;;;;11.90;9.40;;;;;;;;;;5016097;28;20093;-75
2023/03/28 12:31:09;;;;;;;15.23;11.05;;;;;;;;;;5016452;28;20116;-78
2023/03/28 12:33:51;;;;;;;11.55;9.18;;;;;;;;;;5014641;28;20037;-75
2023/03/28 12:36:32;;;;;;;10.18;8.63;;;;;;;;;;5015681;28;20032;-77
2023/03/28 12:39:18;;;;;;;7.18;6.47;;;;;;;;;;5014666;28;20061;-75
2023/03/28 12:41:44;;;;;;;18.52;14.15;;;;;;;;;;5018552;28;20128;-76
2023/03/28 12:44:14;;;;;;;9.68;7.68;;;;;;;;;;5011967;28;20108;-76
2023/03/28 12:46:51;;;;;;;15.52;11.93;;;;;;;;;;5017684;28;20069;-76
2023/03/28 12:49:31;;;;;;;9.60;8.18;;;;;;;;;;5014928;28;20364;-75
2023/03/28 12:51:56;;;;;;;;;;;;;;;;;;5014970;28;20029;-77
2023/03/28 12:54:24;;;;;;;12.38;9.82;;;;;;;;;;5015274;28;19912;-76
2023/03/28 12:57:01;;;;;;;9.85;8.75;;;;;;;;;;5014574;28;20832;-76
2023/03/28 12:59:35;;;;;;;19.52;15.65;;;;;;;;;;5012366;28;20029;-76
2023/03/28 13:02:21;;;;;;;11.15;9.18;;;;;;;;;;5015155;28;20026;-77
2023/03/28 13:05:05;;;;;;;10.48;8.73;;;;;;;;;;5011339;28;20096;-76
2023/03/28 13:07:40;;;;;;;10.15;9.05;;;;;;;;;;5016978;28;20021;-74
2023/03/28 13:10:19;;;;;;;12.90;10.48;;;;;;;;;;5016127;28;20025;-75
2023/03/28 13:12:44;;;;;;;9.33;5.17;;;;;;;;;;5013581;28;20440;-73
2023/03/28 13:15:12;;;;;;;5.93;4.60;;;;;;;;;;5014301;28;20044;-76
2023/03/28 13:17:44;;;;;;;7.85;6.20;;;;;;;;;;5011889;28;20034;-75
2023/03/28 13:20:16;;;;;;;12.40;7.78;;;;;;;;;;5014569;28;20049;-75
2023/03/28 13:22:42;;;;;;;11.60;9.48;;;;;;;;;;5006294;28;20345;-76
2023/03/28 13:25:20;;;;;;;17.92;13.38;;;;;;;;;;5013913;28;20033;-76
2023/03/28 13:27:49;;;;;;;20.98;12.05;;;;;;;;;;5016633;28;20025;-76
2023/03/28 13:30:16;;;;;;;24.02;17.67;;;;;;;;;;5000420;28;20091;-77
2023/03/28 13:32:45;;;;;;;19.33;14.05;;;;;;;;;;5005387;28;20029;-76
2023/03/28 13:35:29;;;;;;;11.40;7.50;;;;;;;;;;5016423;28;20030;-76
2023/03/28 13:38:11;;;;;;;14.57;11.43;;;;;;;;;;5015936;28;20041;-76
2023/03/28 13:40:49;;;;;;;14.85;13.27;;;;;;;;;;5021971;28;20400;-77
2023/03/28 13:43:21;;;;;;;18.17;16.25;;;;;;;;;;5032568;28;20087;-76
2023/03/28 13:45:48;;;;;;;18.50;15.18;;;;;;;;;;5016277;28;20030;-75
2023/03/28 13:48:14;;;;;;;5.82;5.22;;;;;;;;;;5011519;28;20450;-75
2023/03/28 13:50:40;;;;;;;11.50;10.05;;;;;;;;;;5003258;28;20018;-74
2023/03/28 13:53:05;;;;;;;13.13;10.32;;;;;;;;;;5008647;28;20025;-75
2023/03/28 13:55:30;;;;;;;10.70;8.68;;;;;;;;;;5000715;28;21314;-76
2023/03/28 13:57:59;;;;;;;13.30;11.50;;;;;;;;;;5002649;28;20039;-75
2023/03/28 14:00:25;;;;;;;13.80;11.13;;;;;;;;;;5004710;28;20106;-75
2023/03/28 14:02:52;;;;;;;17.52;13.45;;;;;;;;;;5013560;28;20417;-76
2023/03/28 14:05:17;;;;;;;17.13;13.20;;;;;;;;;;5010854;28;20037;-74
2023/03/28 14:07:43;;;;;;;20.30;14.35;;;;;;;;;;5026240;28;20371;-74
2023/03/28 14:10:28;;;;;;;36.70;23.35;;;;;;;;;;5002958;28;20037;-75
2023/03/28 14:12:56;;;;;;;22.35;15.75;;;;;;;;;;5014029;28;20038;-73
2023/03/28 14:15:23;;;;;;;24.98;18.15;;;;;;;;;;5006962;28;20017;-80
2023/03/28 14:17:49;;;;;;;46.90;30.90;;;;;;;;;;4999564;28;20336;-80
2023/03/28 14:20:15;;;;;;;59.58;35.25;;;;;;;;;;5016731;28;20044;-79
2023/03/28 14:22:43;;;;;;;25.50;17.02;;;;;;;;;;5011223;28;20180;-79
2023/03/28 14:25:12;;;;;;;24.00;16.77;;;;;;;;;;5003139;28;20029;-80
2023/03/28 14:27:38;;;;;;;;;;;;;;;;;;5017372;28;20052;-80
2023/03/28 14:30:15;;;;;;;38.40;30.73;;;;;;;;;;5008916;28;19960;-79
2023/03/28 14:32:49;;;;;;;48.33;33.72;;;;;;;;;;4999901;28;20419;-79
2023/03/28 14:35:19;;;;;;;18.52;13.20;;;;;;;;;;5013638;28;20091;-81
2023/03/28 14:37:50;;;;;;;18.50;13.90;;;;;;;;;;5016490;28;20030;-80
2023/03/28 14:40:17;;;;;;;18.27;14.02;;;;;;;;;;5011836;28;20030;-80